createdAt,value
2018-08-07T00:00:37.223Z,18.90
2018-08-07T00:03:06.857Z,18.90
2018-08-07T00:05:35.494Z,18.90
2018-08-07T00:08:04.555Z,19.00
2018-08-07T00:10:33.352Z,19.00
2018-08-07T00:13:02.270Z,19.00
2018-08-07T00:15:31.392Z,19.00
2018-08-07T00:18:00.019Z,19.10
2018-08-07T00:20:28.586Z,19.10
2018-08-07T00:22:57.668Z,19.10
2018-08-07T00:25:26.951Z,19.10
2018-08-07T00:27:56.662Z,19.10
2018-08-07T00:30:25.268Z,19.10
2018-08-07T00:32:53.858Z,19.10
2018-08-07T00:35:22.396Z,19.10
2018-08-07T00:37:51.117Z,19.10
2018-08-07T00:40:20.430Z,19.00
2018-08-07T00:42:49.308Z,19.00
2018-08-07T00:45:20.353Z,19.00
2018-08-07T00:47:49.507Z,19.00
2018-08-07T00:50:19.796Z,18.90
2018-08-07T00:52:49.505Z,18.90
2018-08-07T00:55:18.953Z,18.90
2018-08-07T00:57:48.169Z,18.90
2018-08-07T01:00:17.190Z,18.80
2018-08-07T01:02:46.124Z,18.80
2018-08-07T01:05:16.201Z,18.80
2018-08-07T01:07:44.922Z,18.80
2018-08-07T01:10:15.745Z,18.70
2018-08-07T01:12:44.477Z,18.70
2018-08-07T01:15:16.747Z,18.80
2018-08-07T01:17:46.554Z,18.70
2018-08-07T01:20:17.685Z,18.50
2018-08-07T01:22:46.659Z,18.40
2018-08-07T01:25:18.497Z,18.40
2018-08-07T01:30:24.295Z,18.40
2018-08-07T01:32:53.559Z,18.40
2018-08-07T01:35:22.391Z,18.40
2018-08-07T01:37:51.475Z,18.40
2018-08-07T01:40:20.181Z,18.30
2018-08-07T01:42:48.869Z,18.30
2018-08-07T01:45:17.723Z,18.30
2018-08-07T01:47:47.659Z,18.20
2018-08-07T01:50:16.774Z,18.20
2018-08-07T01:52:46.031Z,18.20
2018-08-07T01:55:22.117Z,18.20
2018-08-07T01:57:50.691Z,18.10
2018-08-07T02:00:19.520Z,18.10
2018-08-07T02:02:48.502Z,18.10
2018-08-07T02:05:17.224Z,18.10
2018-08-07T02:07:46.488Z,18.10
2018-08-07T02:10:16.843Z,18.10
2018-08-07T02:12:45.435Z,18.00
2018-08-07T02:15:14.946Z,18.00
2018-08-07T02:17:43.958Z,18.10
2018-08-07T02:20:13.970Z,18.00
2018-08-07T02:22:43.265Z,18.10
2018-08-07T02:25:14.646Z,18.10
2018-08-07T02:27:43.772Z,18.10
2018-08-07T02:30:13.725Z,18.00
2018-08-07T02:32:42.402Z,18.00
2018-08-07T02:35:12.442Z,18.00
2018-08-07T02:37:42.009Z,17.90
2018-08-07T02:40:11.884Z,18.00
2018-08-07T02:42:40.798Z,17.90
2018-08-07T02:45:11.703Z,17.80
2018-08-07T02:47:41.070Z,17.80
2018-08-07T02:50:11.000Z,17.80
2018-08-07T02:52:39.539Z,17.90
2018-08-07T02:55:09.682Z,17.90
2018-08-07T02:57:38.909Z,17.90
2018-08-07T03:00:12.158Z,17.80
2018-08-07T03:02:40.766Z,17.80
2018-08-07T03:05:10.224Z,17.80
2018-08-07T03:07:39.332Z,17.80
2018-08-07T03:10:09.257Z,17.70
2018-08-07T03:12:38.198Z,17.60
2018-08-07T03:15:15.983Z,17.70
2018-08-07T03:17:45.864Z,17.70
2018-08-07T03:20:14.488Z,17.70
2018-08-07T03:25:13.136Z,17.60
2018-08-07T03:27:43.079Z,17.60
2018-08-07T03:30:14.070Z,17.60
2018-08-07T03:32:43.119Z,17.60
2018-08-07T03:35:11.741Z,17.60
2018-08-07T03:37:40.865Z,17.60
2018-08-07T03:40:11.693Z,17.50
2018-08-07T03:42:40.378Z,17.50
2018-08-07T03:45:10.657Z,17.50
2018-08-07T03:47:39.411Z,17.50
2018-08-07T03:50:09.559Z,17.50
2018-08-07T03:52:38.385Z,17.40
2018-08-07T03:55:11.197Z,17.40
2018-08-07T03:57:40.723Z,17.40
2018-08-07T04:00:15.322Z,17.40
2018-08-07T04:02:44.009Z,17.40
2018-08-07T04:05:12.871Z,17.30
2018-08-07T04:07:42.170Z,17.30
2018-08-07T04:10:12.487Z,17.30
2018-08-07T04:12:41.482Z,17.30
2018-08-07T04:15:12.065Z,17.30
2018-08-07T04:17:41.304Z,17.20
2018-08-07T04:20:12.232Z,17.20
2018-08-07T04:22:41.307Z,17.20
2018-08-07T04:25:09.883Z,17.20
2018-08-07T04:27:38.531Z,17.20
2018-08-07T04:30:10.089Z,17.20
2018-08-07T04:32:38.785Z,17.20
2018-08-07T04:35:08.133Z,17.20
2018-08-07T04:37:37.540Z,17.20
2018-08-07T04:40:07.412Z,17.30
2018-08-07T04:42:36.936Z,17.30
2018-08-07T04:45:08.230Z,17.30
2018-08-07T04:47:36.964Z,17.30
2018-08-07T04:50:06.186Z,17.30
2018-08-07T04:52:34.850Z,17.30
2018-08-07T04:55:03.524Z,17.30
2018-08-07T05:00:00.656Z,17.40
2018-08-07T05:02:29.281Z,17.40
2018-08-07T05:04:58.285Z,17.40
2018-08-07T05:07:27.197Z,17.40
2018-08-07T05:09:56.072Z,17.40
2018-08-07T05:12:24.696Z,17.50
2018-08-07T05:14:53.369Z,17.50
2018-08-07T05:17:22.076Z,17.60
2018-08-07T05:19:50.703Z,17.60
2018-08-07T05:22:20.057Z,17.60
2018-08-07T05:24:48.728Z,17.50
2018-08-07T05:27:17.379Z,17.50
2018-08-07T05:29:46.427Z,17.50
2018-08-07T05:32:15.201Z,17.50
2018-08-07T05:34:43.952Z,17.50
2018-08-07T05:37:12.628Z,17.50
2018-08-07T05:39:41.257Z,17.50
2018-08-07T05:42:10.191Z,17.50
2018-08-07T05:44:38.873Z,17.60
2018-08-07T05:47:07.787Z,17.70
2018-08-07T05:49:37.367Z,17.80
2018-08-07T05:52:05.983Z,17.80
2018-08-07T05:54:36.215Z,17.80
2018-08-07T05:57:05.058Z,17.80
2018-08-07T05:59:33.990Z,17.90
2018-08-07T06:02:03.345Z,17.90
2018-08-07T06:04:32.833Z,17.90
2018-08-07T06:07:02.628Z,18.00
2018-08-07T06:09:31.407Z,18.10
2018-08-07T06:12:00.216Z,18.20
2018-08-07T06:14:29.154Z,18.20
2018-08-07T06:16:57.891Z,18.30
2018-08-07T06:19:26.709Z,18.40
2018-08-07T06:21:56.053Z,18.60
2018-08-07T06:24:24.731Z,18.70
2018-08-07T06:26:53.563Z,18.70
2018-08-07T06:29:22.437Z,18.80
2018-08-07T06:31:51.155Z,18.80
2018-08-07T06:34:20.056Z,18.90
2018-08-07T06:36:49.165Z,19.10
2018-08-07T06:39:18.120Z,19.20
2018-08-07T06:41:47.298Z,19.20
2018-08-07T06:44:15.923Z,19.30
2018-08-07T06:46:44.844Z,19.40
2018-08-07T06:49:13.805Z,19.50
2018-08-07T06:51:42.390Z,19.60
2018-08-07T06:54:11.054Z,19.80
2018-08-07T06:56:40.051Z,20.00
2018-08-07T06:59:09.320Z,20.10
2018-08-07T07:01:39.064Z,20.20
2018-08-07T07:04:07.729Z,20.30
2018-08-07T07:06:36.644Z,20.40
2018-08-07T07:09:09.177Z,20.80
2018-08-07T07:11:38.179Z,21.10
2018-08-07T07:14:07.385Z,21.30
2018-08-07T07:16:36.436Z,21.40
2018-08-07T07:19:05.332Z,21.50
2018-08-07T07:21:34.704Z,21.60
2018-08-07T07:24:03.545Z,21.70
2018-08-07T07:26:32.171Z,21.70
2018-08-07T07:29:01.059Z,21.90
2018-08-07T07:31:29.797Z,22.20
2018-08-07T07:33:58.429Z,22.20
2018-08-07T07:36:27.051Z,22.40
2018-08-07T07:41:24.306Z,22.70
2018-08-07T07:43:52.916Z,22.90
2018-08-07T07:46:21.661Z,23.00
2018-08-07T07:48:50.422Z,23.10
2018-08-07T07:51:19.063Z,23.20
2018-08-07T07:53:47.854Z,23.10
2018-08-07T07:58:45.577Z,23.50
2018-08-07T08:01:14.123Z,23.60
2018-08-07T08:03:42.929Z,23.70
2018-08-07T08:06:12.867Z,23.80
2018-08-07T08:08:41.676Z,23.70
2018-08-07T08:11:10.745Z,23.70
2018-08-07T08:13:39.391Z,23.80
2018-08-07T08:16:08.077Z,24.10
2018-08-07T08:18:36.709Z,24.20
2018-08-07T08:21:05.349Z,24.20
2018-08-07T08:23:34.461Z,24.40
2018-08-07T08:26:03.159Z,24.50
2018-08-07T08:28:31.756Z,24.50
2018-08-07T08:31:00.616Z,24.60
2018-08-07T08:33:29.347Z,24.80
2018-08-07T08:35:58.143Z,24.80
2018-08-07T08:38:27.301Z,24.80
2018-08-07T08:40:56.083Z,24.90
2018-08-07T08:43:24.661Z,25.00
2018-08-07T08:45:54.264Z,25.10
2018-08-07T08:48:23.022Z,25.20
2018-08-07T08:50:51.915Z,25.40
2018-08-07T08:53:20.609Z,25.60
2018-08-07T08:55:49.457Z,25.80
2018-08-07T08:58:18.128Z,25.90
2018-08-07T09:00:46.839Z,26.10
2018-08-07T09:03:15.598Z,26.20
2018-08-07T09:05:44.526Z,26.40
2018-08-07T09:08:13.446Z,26.60
2018-08-07T09:10:42.502Z,26.70
2018-08-07T09:13:11.508Z,26.90
2018-08-07T09:15:41.250Z,27.30
2018-08-07T09:18:10.236Z,27.30
2018-08-07T09:20:39.080Z,27.40
2018-08-07T09:23:08.056Z,27.50
2018-08-07T09:25:36.812Z,27.60
2018-08-07T09:28:05.288Z,27.60
2018-08-07T09:30:33.982Z,27.50
2018-08-07T09:33:02.704Z,27.90
2018-08-07T09:35:31.458Z,28.10
2018-08-07T09:38:00.531Z,28.20
2018-08-07T09:40:29.364Z,28.30
2018-08-07T09:42:59.236Z,28.40
2018-08-07T09:45:34.049Z,28.40
2018-08-07T09:48:03.971Z,28.50
2018-08-07T09:50:32.666Z,28.60
2018-08-07T09:53:01.740Z,28.90
2018-08-07T09:55:31.745Z,29.10
2018-08-07T09:58:00.956Z,29.10
2018-08-07T10:00:35.332Z,29.20
2018-08-07T10:03:06.011Z,29.40
2018-08-07T10:05:35.567Z,29.90
2018-08-07T10:08:04.626Z,30.00
2018-08-07T10:10:33.760Z,30.00
2018-08-07T10:13:03.351Z,30.00
2018-08-07T10:18:01.799Z,30.40
2018-08-07T10:20:31.487Z,30.60
2018-08-07T10:23:00.633Z,30.50
2018-08-07T10:27:58.064Z,30.70
2018-08-07T10:30:27.374Z,30.90
2018-08-07T10:32:56.570Z,30.90
2018-08-07T10:35:25.518Z,30.90
2018-08-07T10:42:55.683Z,30.70
2018-08-07T10:45:26.205Z,30.60
2018-08-07T10:47:55.468Z,30.70
2018-08-07T10:50:29.804Z,30.80
2018-08-07T10:52:59.666Z,31.20
2018-08-07T10:55:28.596Z,31.20
2018-08-07T10:57:59.152Z,31.20
2018-08-07T11:00:30.966Z,31.40
2018-08-07T11:03:00.416Z,31.40
2018-08-07T11:05:30.393Z,31.70
2018-08-07T11:07:59.643Z,31.70
2018-08-07T11:10:28.748Z,31.90
2018-08-07T11:12:57.825Z,32.00
2018-08-07T11:15:31.198Z,32.00
2018-08-07T11:18:01.034Z,32.20
2018-08-07T11:20:30.511Z,32.00
2018-08-07T11:23:01.355Z,32.10
2018-08-07T11:25:31.038Z,31.90
2018-08-07T11:28:00.668Z,32.00
2018-08-07T11:30:30.001Z,32.20
2018-08-07T11:32:59.917Z,32.30
2018-08-07T11:35:29.346Z,32.40
2018-08-07T11:37:59.758Z,32.30
2018-08-07T11:40:28.680Z,32.30
2018-08-07T11:42:58.020Z,32.30
2018-08-07T11:45:28.242Z,32.40
2018-08-07T11:47:57.623Z,32.50
2018-08-07T11:50:27.723Z,32.40
2018-08-07T11:52:56.524Z,32.40
2018-08-07T11:55:25.789Z,32.60
2018-08-07T11:57:55.281Z,32.50
2018-08-07T12:00:26.729Z,32.50
2018-08-07T12:02:55.761Z,32.60
2018-08-07T12:05:24.581Z,32.70
2018-08-07T12:07:53.705Z,32.80
2018-08-07T12:10:22.697Z,32.70
2018-08-07T12:12:51.699Z,32.80
2018-08-07T12:15:21.875Z,32.70
2018-08-07T12:17:51.053Z,32.70
2018-08-07T12:20:19.843Z,32.80
2018-08-07T12:22:49.498Z,32.70
2018-08-07T12:25:18.914Z,32.70
2018-08-07T12:27:48.029Z,32.70
2018-08-07T12:30:20.961Z,32.60
2018-08-07T12:32:49.981Z,32.60
2018-08-07T12:35:19.034Z,32.60
2018-08-07T12:37:47.954Z,32.60
2018-08-07T12:40:20.113Z,32.40
2018-08-07T12:42:49.430Z,32.30
2018-08-07T12:45:19.213Z,32.30
2018-08-07T12:47:49.386Z,32.50
2018-08-07T12:50:18.834Z,32.70
2018-08-07T12:52:47.849Z,32.70
2018-08-07T12:55:21.428Z,32.80
2018-08-07T12:57:50.514Z,33.00
2018-08-07T13:00:20.846Z,33.20
2018-08-07T13:02:49.467Z,33.30
2018-08-07T13:05:18.607Z,33.40
2018-08-07T13:07:47.698Z,33.30
2018-08-07T13:10:18.132Z,33.20
2018-08-07T13:12:48.084Z,33.40
2018-08-07T13:15:18.092Z,33.40
2018-08-07T13:17:47.330Z,33.40
2018-08-07T13:20:16.015Z,33.30
2018-08-07T13:22:45.422Z,33.20
2018-08-07T13:25:16.360Z,33.00
2018-08-07T13:27:45.261Z,33.00
2018-08-07T13:30:21.143Z,33.00
2018-08-07T13:32:50.074Z,33.00
2018-08-07T13:35:19.236Z,32.80
2018-08-07T13:37:49.402Z,32.80
2018-08-07T13:40:19.252Z,33.00
2018-08-07T13:42:49.198Z,33.00
2018-08-07T13:45:25.687Z,32.90
2018-08-07T13:47:54.713Z,32.90
2018-08-07T13:50:24.769Z,32.80
2018-08-07T13:52:53.775Z,32.70
2018-08-07T13:55:23.894Z,32.60
2018-08-07T13:57:52.670Z,32.60
2018-08-07T14:00:26.691Z,32.50
2018-08-07T14:02:56.204Z,32.50
2018-08-07T14:05:25.693Z,32.50
2018-08-07T14:07:56.627Z,32.30
2018-08-07T14:10:26.852Z,32.20
2018-08-07T14:12:55.675Z,32.20
2018-08-07T14:15:26.028Z,32.00
2018-08-07T14:17:54.636Z,31.80
2018-08-07T14:20:23.581Z,31.70
2018-08-07T14:22:52.870Z,31.40
2018-08-07T14:25:27.337Z,31.40
2018-08-07T14:27:56.416Z,31.30
2018-08-07T14:30:26.430Z,31.20
2018-08-07T14:32:55.945Z,31.10
2018-08-07T14:35:25.467Z,31.00
2018-08-07T14:37:54.236Z,30.80
2018-08-07T14:40:24.625Z,30.70
2018-08-07T14:42:53.745Z,30.70
2018-08-07T14:45:24.736Z,30.60
2018-08-07T14:47:54.374Z,30.50
2018-08-07T14:50:25.113Z,30.40
2018-08-07T14:52:54.311Z,30.30
2018-08-07T14:55:23.380Z,30.10
2018-08-07T14:57:52.715Z,30.00
2018-08-07T15:00:26.252Z,29.70
2018-08-07T15:02:54.882Z,29.40
2018-08-07T15:05:23.782Z,29.20
2018-08-07T15:07:52.677Z,29.10
2018-08-07T15:10:23.097Z,28.80
2018-08-07T15:12:52.200Z,28.70
2018-08-07T15:15:27.939Z,28.50
2018-08-07T15:17:57.237Z,28.40
2018-08-07T15:20:27.428Z,28.20
2018-08-07T15:22:56.798Z,28.10
2018-08-07T15:25:25.778Z,27.90
2018-08-07T15:27:55.047Z,27.70
2018-08-07T15:30:25.175Z,27.60
2018-08-07T15:32:54.182Z,27.50
2018-08-07T15:35:24.924Z,27.40
2018-08-07T15:37:53.559Z,27.40
2018-08-07T15:40:22.487Z,27.30
2018-08-07T15:42:51.349Z,27.30
2018-08-07T15:45:21.198Z,27.40
2018-08-07T15:47:50.215Z,27.40
2018-08-07T15:50:19.633Z,27.70
2018-08-07T15:52:49.745Z,27.60
2018-08-07T15:55:20.052Z,27.50
2018-08-07T15:57:49.176Z,27.50
2018-08-07T16:00:22.795Z,27.40
2018-08-07T16:02:52.548Z,27.30
2018-08-07T16:05:21.264Z,27.30
2018-08-07T16:07:51.421Z,27.60
2018-08-07T16:10:20.843Z,27.40
2018-08-07T16:12:50.404Z,27.20
2018-08-07T16:15:19.117Z,27.00
2018-08-07T16:17:48.904Z,27.00
2018-08-07T16:20:18.039Z,27.10
2018-08-07T16:22:46.970Z,27.10
2018-08-07T16:27:46.324Z,26.90
2018-08-07T16:30:18.189Z,26.80
2018-08-07T16:32:46.766Z,26.80
2018-08-07T16:35:16.227Z,26.80
2018-08-07T16:42:43.204Z,26.80
2018-08-07T16:47:43.081Z,26.80
2018-08-07T16:50:14.761Z,26.70
2018-08-07T16:52:44.061Z,27.10
2018-08-07T16:55:12.754Z,26.90
2018-08-07T17:00:11.948Z,26.90
2018-08-07T17:02:41.018Z,26.80
2018-08-07T17:05:13.322Z,26.70
2018-08-07T17:07:42.923Z,26.70
2018-08-07T17:10:14.227Z,26.60
2018-08-07T17:12:42.950Z,26.60
2018-08-07T17:15:12.318Z,26.60
2018-08-07T17:17:42.181Z,26.60
2018-08-07T17:20:13.103Z,26.70
2018-08-07T17:22:42.429Z,26.70
2018-08-07T17:27:41.722Z,26.70
2018-08-07T17:30:14.341Z,26.90
2018-08-07T17:32:43.551Z,27.20
2018-08-07T17:35:14.530Z,27.00
2018-08-07T17:37:43.984Z,26.90
2018-08-07T17:40:14.103Z,26.80
2018-08-07T17:42:42.992Z,26.70
2018-08-07T17:45:12.946Z,26.70
2018-08-07T17:47:41.728Z,26.60
2018-08-07T17:50:13.746Z,26.60
2018-08-07T17:52:43.918Z,26.60
2018-08-07T17:55:12.892Z,26.60
2018-08-07T17:57:41.592Z,26.60
2018-08-07T18:00:17.424Z,26.50
2018-08-07T18:02:46.428Z,26.50
2018-08-07T18:05:15.127Z,26.40
2018-08-07T18:07:45.795Z,26.60
2018-08-07T18:10:16.139Z,26.50
2018-08-07T18:12:44.854Z,26.50
2018-08-07T18:15:15.083Z,26.40
2018-08-07T18:17:44.724Z,26.30
2018-08-07T18:20:15.406Z,26.30
2018-08-07T18:22:44.340Z,26.20
2018-08-07T18:25:13.362Z,26.10
2018-08-07T18:27:42.478Z,26.10
2018-08-07T18:30:13.869Z,26.00
2018-08-07T18:32:43.388Z,26.00
2018-08-07T18:35:15.325Z,25.90
2018-08-07T18:37:44.196Z,25.80
2018-08-07T18:40:13.110Z,25.70
2018-08-07T18:45:12.192Z,25.60
2018-08-07T18:47:41.960Z,25.60
2018-08-07T18:50:13.529Z,25.60
2018-08-07T18:52:42.565Z,25.60
2018-08-07T18:55:13.024Z,25.70
2018-08-07T18:57:42.723Z,25.90
2018-08-07T19:00:13.910Z,25.80
2018-08-07T19:02:43.448Z,25.60
2018-08-07T19:05:14.796Z,25.50
2018-08-07T19:07:44.869Z,25.40
2018-08-07T19:10:14.127Z,25.30
2018-08-07T19:12:43.573Z,25.20
2018-08-07T19:15:13.400Z,25.20
2018-08-07T19:17:42.358Z,25.10
2018-08-07T19:20:13.363Z,25.00
2018-08-07T19:25:11.403Z,24.90
2018-08-07T19:27:41.094Z,25.00
2018-08-07T19:30:11.636Z,24.90
2018-08-07T19:32:41.084Z,24.80
2018-08-07T19:37:40.771Z,24.70
2018-08-07T19:40:12.679Z,24.70
2018-08-07T19:42:41.417Z,24.60
2018-08-07T19:45:12.302Z,24.50
2018-08-07T19:47:42.403Z,24.50
2018-08-07T19:50:13.392Z,24.50
2018-08-07T19:52:42.366Z,24.40
2018-08-07T19:55:14.058Z,24.80
2018-08-07T19:57:43.963Z,24.80
2018-08-07T20:00:20.015Z,24.80
2018-08-07T20:02:49.495Z,24.80
2018-08-07T20:05:19.023Z,24.80
2018-08-07T20:07:48.394Z,25.00
2018-08-07T20:10:18.805Z,25.00
2018-08-07T20:12:47.958Z,25.10
2018-08-07T20:15:22.158Z,25.10
2018-08-07T20:17:51.569Z,24.90
2018-08-07T20:20:21.746Z,24.80
2018-08-07T20:22:50.862Z,24.70
2018-08-07T20:25:20.058Z,24.60
2018-08-07T20:27:49.507Z,24.50
2018-08-07T20:30:19.925Z,24.70
2018-08-07T20:32:49.893Z,24.50
2018-08-07T20:35:19.102Z,24.40
2018-08-07T20:37:47.979Z,24.30
2018-08-07T20:40:19.242Z,24.10
2018-08-07T20:42:48.607Z,24.00
2018-08-07T20:45:18.211Z,23.80
2018-08-07T20:47:48.102Z,23.60
2018-08-07T20:50:20.654Z,23.40
2018-08-07T20:52:49.962Z,23.20
2018-08-07T20:55:19.295Z,23.00
2018-08-07T20:57:49.151Z,22.70
2018-08-07T21:00:20.818Z,22.50
2018-08-07T21:02:50.345Z,22.30
2018-08-07T21:05:19.913Z,22.00
2018-08-07T21:07:50.563Z,21.70
2018-08-07T21:10:21.980Z,21.50
2018-08-07T21:12:51.055Z,21.30
2018-08-07T21:15:20.329Z,21.10
2018-08-07T21:17:49.002Z,20.90
2018-08-07T21:20:19.493Z,21.00
2018-08-07T21:22:49.435Z,21.00
2018-08-07T21:25:23.249Z,20.80
2018-08-07T21:30:28.045Z,20.60
2018-08-07T21:32:56.770Z,20.50
2018-08-07T21:35:25.645Z,20.50
2018-08-07T21:37:54.266Z,20.30
2018-08-07T21:40:24.023Z,20.20
2018-08-07T21:42:53.787Z,20.00
2018-08-07T21:45:22.534Z,19.70
2018-08-07T21:47:51.151Z,19.60
2018-08-07T21:50:22.175Z,19.50
2018-08-07T21:52:51.186Z,19.70
2018-08-07T21:55:20.630Z,19.70
2018-08-07T21:57:49.629Z,19.60
2018-08-07T22:00:52.087Z,19.70
2018-08-07T22:03:21.057Z,19.80
2018-08-07T22:05:50.956Z,19.80
2018-08-07T22:08:19.551Z,19.70
2018-08-07T22:10:48.205Z,19.80
2018-08-07T22:13:17.210Z,19.80
2018-08-07T22:15:46.434Z,19.70
2018-08-07T22:18:15.222Z,19.70
2018-08-07T22:20:43.904Z,19.60
2018-08-07T22:23:12.571Z,19.50
2018-08-07T22:25:41.186Z,19.60
2018-08-07T22:28:10.229Z,19.70
2018-08-07T22:30:38.892Z,19.90
2018-08-07T22:33:07.833Z,20.00
2018-08-07T22:35:36.456Z,19.90
2018-08-07T22:38:05.081Z,19.50
2018-08-07T22:40:34.318Z,19.40
2018-08-07T22:43:03.419Z,19.30
2018-08-07T22:45:32.042Z,19.30
2018-08-07T22:48:00.646Z,19.30
2018-08-07T22:50:29.347Z,19.40
2018-08-07T22:52:57.994Z,19.30
2018-08-07T22:55:26.567Z,19.30
2018-08-07T22:57:55.163Z,19.40
2018-08-07T23:00:24.071Z,19.50
2018-08-07T23:02:52.792Z,19.30
2018-08-07T23:05:21.927Z,19.20
2018-08-07T23:07:50.691Z,19.20
2018-08-07T23:10:21.878Z,19.10
2018-08-07T23:12:50.788Z,19.10
2018-08-07T23:15:20.760Z,19.20
2018-08-07T23:17:49.625Z,19.40
2018-08-07T23:20:21.157Z,19.60
2018-08-07T23:22:53.062Z,19.40
2018-08-07T23:25:21.920Z,19.30
2018-08-07T23:27:50.902Z,19.40
2018-08-07T23:30:20.581Z,19.40
2018-08-07T23:32:49.281Z,19.30
2018-08-07T23:35:18.207Z,19.60
2018-08-07T23:37:46.874Z,19.60
2018-08-07T23:40:15.964Z,19.50
2018-08-07T23:42:45.068Z,19.70
2018-08-07T23:45:14.850Z,19.60
2018-08-07T23:47:43.617Z,19.40
2018-08-07T23:50:13.562Z,19.40
2018-08-07T23:52:42.546Z,19.40
2018-08-07T23:55:11.258Z,19.50
2018-08-07T23:57:40.184Z,19.70
